Time;durP1;ratioP1;P1;durP2;ratioP2;P2;SDS_P1;SDS_P2;PMS_P1;PMS_P2;Temp;Humidity;BMP_temperature;BMP_pressure;BME280_temperature;BME280_humidity;BME280_pressure;Samples;Min_cycle;Max_cycle;Signal;HPM_P1;HPM_P2
2021/08/17 00:01:23;;;;;;;23.43;11.90;;;13.60;99.90;;;;;;5007127;28;20518;-58
2021/08/17 00:04:24;;;;;;;33.87;13.10;;;13.70;99.90;;;;;;5011789;28;20418;-57
2021/08/17 00:07:07;;;;;;;22.77;12.27;;;13.70;99.90;;;;;;5006303;28;21250;-59
2021/08/17 00:09:35;;;;;;;23.87;11.57;;;13.70;99.90;;;;;;5010949;28;20442;-57
2021/08/17 00:12:04;;;;;;;26.47;12.80;;;13.60;99.90;;;;;;5012080;28;20443;-57
2021/08/17 00:14:47;;;;;;;22.87;13.70;;;13.60;99.90;;;;;;5007430;28;20514;-57
2021/08/17 00:17:18;;;;;;;22.87;11.83;;;13.60;99.90;;;;;;5017688;28;20422;-57
2021/08/17 00:20:02;;;;;;;26.77;12.20;;;13.60;99.90;;;;;;5011600;28;20431;-58
2021/08/17 00:22:28;;;;;;;21.10;12.10;;;13.60;99.90;;;;;;5002024;28;20538;-58
2021/08/17 00:25:07;;;;;;;20.17;11.47;;;13.60;99.90;;;;;;5009790;28;20562;-57
2021/08/17 00:27:35;;;;;;;24.67;12.77;;;13.50;99.90;;;;;;5011449;28;20219;-58
2021/08/17 00:30:07;;;;;;;24.50;12.83;;;13.60;99.90;;;;;;5007387;28;20448;-57
2021/08/17 00:32:38;;;;;;;27.10;12.73;;;13.60;99.90;;;;;;4992674;28;20880;-59
2021/08/17 00:35:04;;;;;;;23.90;11.83;;;13.60;99.90;;;;;;5003535;28;20536;-57
2021/08/17 00:37:33;;;;;;;22.57;11.40;;;13.60;99.90;;;;;;5007306;28;20476;-57
2021/08/17 00:40:09;;;;;;;22.37;13.00;;;13.60;99.90;;;;;;4991714;28;20443;-57
2021/08/17 00:42:42;;;;;;;22.87;13.13;;;13.60;99.90;;;;;;5002649;28;20511;-58
2021/08/17 00:45:21;;;;;;;23.33;12.87;;;13.60;99.90;;;;;;5007182;28;20428;-60
2021/08/17 00:47:50;;;;;;;22.27;13.00;;;13.60;99.90;;;;;;5021946;28;20457;-59
2021/08/17 00:50:17;;;;;;;25.63;12.97;;;13.60;99.90;;;;;;5031036;28;20418;-60
2021/08/17 00:52:54;;;;;;;24.47;13.13;;;13.50;99.90;;;;;;5014994;28;20422;-58
2021/08/17 00:55:21;;;;;;;25.90;13.13;;;13.50;99.90;;;;;;5028483;28;20427;-59
2021/08/17 00:57:57;;;;;;;28.83;12.00;;;13.50;99.90;;;;;;5003815;28;20974;-60
2021/08/17 01:00:26;;;;;;;20.77;11.70;;;13.50;99.90;;;;;;5007881;28;20450;-60
2021/08/17 01:03:00;;;;;;;24.10;14.30;;;13.40;99.90;;;;;;5010251;28;20443;-60
2021/08/17 01:05:30;;;;;;;24.17;12.07;;;13.40;99.90;;;;;;5010373;28;20463;-59
2021/08/17 01:08:00;;;;;;;25.07;12.53;;;13.40;99.90;;;;;;5010211;28;21016;-59
2021/08/17 01:10:32;;;;;;;25.90;13.10;;;13.30;99.90;;;;;;5007701;28;20459;-60
2021/08/17 01:16:07;;;;;;;26.50;12.20;;;13.30;99.90;;;;;;4978278;28;20522;-60
2021/08/17 01:18:55;;;;;;;26.37;13.33;;;13.30;99.90;;;;;;5008915;28;20490;-60
2021/08/17 01:21:30;;;;;;;25.77;12.10;;;13.30;99.90;;;;;;4992422;28;20447;-57
2021/08/17 01:24:00;;;;;;;29.07;13.30;;;13.20;99.90;;;;;;4991486;28;20393;-59
2021/08/17 01:29:23;;;;;;;21.00;12.60;;;13.20;99.90;;;;;;4999932;28;20538;-60
2021/08/17 01:31:57;;;;;;;26.37;12.53;;;13.30;99.90;;;;;;5017553;28;20461;-59
2021/08/17 01:34:27;;;;;;;23.67;12.40;;;13.30;99.90;;;;;;5001589;28;20432;-59
2021/08/17 01:36:52;;;;;;;22.40;11.73;;;13.30;99.90;;;;;;5023319;28;20419;-60
2021/08/17 01:39:18;;;;;;;21.07;11.70;;;13.30;99.90;;;;;;5007996;28;20493;-60
2021/08/17 01:41:45;;;;;;;26.23;13.00;;;13.30;99.90;;;;;;5000170;28;20185;-59
2021/08/17 01:44:16;;;;;;;19.60;11.40;;;13.20;99.90;;;;;;5007308;28;20208;-59
2021/08/17 01:46:50;;;;;;;26.60;13.10;;;13.20;99.90;;;;;;5008520;28;20447;-59
2021/08/17 01:49:25;;;;;;;23.00;12.10;;;13.20;99.90;;;;;;5005073;28;20531;-61
2021/08/17 01:51:51;;;;;;;22.80;11.80;;;13.10;99.90;;;;;;5004151;28;20491;-59
2021/08/17 01:54:19;;;;;;;25.03;12.43;;;13.10;99.90;;;;;;5006811;28;20863;-61
2021/08/17 01:56:54;;;;;;;22.20;11.40;;;13.00;99.90;;;;;;5005533;28;20925;-57
2021/08/17 01:59:23;;;;;;;25.30;11.20;;;13.00;99.90;;;;;;5017868;28;20490;-56
2021/08/17 02:02:09;;;;;;;21.17;11.17;;;13.00;99.90;;;;;;4997203;28;20427;-59
2021/08/17 02:04:36;;;;;;;18.90;10.93;;;13.00;99.90;;;;;;5018255;28;20527;-59
2021/08/17 02:07:07;;;;;;;18.20;10.40;;;13.00;99.90;;;;;;5025555;28;20463;-60
2021/08/17 02:09:42;;;;;;;23.40;10.83;;;13.00;99.90;;;;;;5028074;28;20454;-60
2021/08/17 02:12:13;;;;;;;22.30;10.73;;;13.00;99.90;;;;;;5028733;28;20446;-60
2021/08/17 02:15:06;;;;;;;22.40;10.97;;;13.00;99.90;;;;;;5003102;28;20471;-59
2021/08/17 02:17:39;;;;;;;20.73;9.50;;;13.00;99.90;;;;;;5005962;28;21418;-59
2021/08/17 02:20:30;;;;;;;21.43;10.60;;;12.90;99.90;;;;;;5023125;28;20509;-57
2021/08/17 02:22:57;;;;;;;16.73;9.20;;;12.80;99.90;;;;;;5006788;28;20426;-59
2021/08/17 02:25:32;;;;;;;19.87;8.87;;;12.80;99.90;;;;;;5005892;28;20465;-59
2021/08/17 02:28:04;;;;;;;17.27;8.40;;;12.70;99.90;;;;;;4997978;28;20451;-59
2021/08/17 02:30:47;;;;;;;17.33;9.20;;;12.60;99.90;;;;;;4998811;28;20462;-59
2021/08/17 02:33:16;;;;;;;13.57;8.07;;;12.50;99.90;;;;;;4996504;28;21767;-62
2021/08/17 02:35:45;;;;;;;14.93;8.63;;;12.50;99.90;;;;;;5005525;28;20439;-59
2021/08/17 02:38:14;;;;;;;17.00;8.13;;;12.40;99.90;;;;;;5007837;28;20444;-59
2021/08/17 02:40:43;;;;;;;15.00;8.43;;;12.40;99.90;;;;;;5006129;28;20533;-59
2021/08/17 02:43:24;;;;;;;17.93;8.10;;;12.40;99.90;;;;;;5008185;28;20936;-60
2021/08/17 02:45:51;;;;;;;14.63;8.43;;;12.30;99.90;;;;;;5001726;28;20446;-58
2021/08/17 02:48:19;;;;;;;13.00;8.20;;;12.30;99.90;;;;;;5007693;28;20451;-59
2021/08/17 02:50:58;;;;;;;11.07;6.90;;;12.30;99.90;;;;;;5009746;28;20808;-59
2021/08/17 02:53:24;;;;;;;13.23;6.93;;;12.20;99.90;;;;;;5002971;28;20834;-58
2021/08/17 02:55:52;;;;;;;15.83;8.17;;;12.20;99.90;;;;;;5017447;28;20531;-58
2021/08/17 02:58:28;;;;;;;15.20;7.67;;;12.20;99.90;;;;;;5007774;28;20181;-59
2021/08/17 03:00:54;;;;;;;14.87;7.10;;;12.20;99.90;;;;;;5007768;28;20403;-59
2021/08/17 03:03:43;;;;;;;14.20;6.60;;;12.10;99.90;;;;;;5013090;28;20803;-60
2021/08/17 03:06:11;;;;;;;13.07;7.23;;;12.10;99.90;;;;;;5008285;28;20188;-58
2021/08/17 03:08:36;;;;;;;13.07;7.40;;;12.00;99.90;;;;;;5009232;28;20583;-58
2021/08/17 03:11:07;;;;;;;16.67;7.57;;;12.00;99.90;;;;;;5001965;28;20721;-58
2021/08/17 03:13:46;;;;;;;13.40;7.57;;;11.90;99.90;;;;;;5006397;28;20242;-58
2021/08/17 03:16:12;;;;;;;12.10;7.50;;;11.90;99.90;;;;;;5010296;28;20388;-58
2021/08/17 03:18:37;;;;;;;15.20;7.27;;;11.90;99.90;;;;;;5006609;28;20958;-58
2021/08/17 03:21:23;;;;;;;13.83;7.30;;;11.90;99.90;;;;;;4989504;28;20169;-58
2021/08/17 03:23:54;;;;;;;16.20;7.50;;;11.90;99.90;;;;;;4989756;28;20192;-58
2021/08/17 03:26:26;;;;;;;14.13;7.00;;;11.80;99.90;;;;;;5004417;28;20416;-59
2021/08/17 03:28:52;;;;;;;12.30;7.33;;;11.80;99.90;;;;;;4989347;28;20498;-58
2021/08/17 03:31:20;;;;;;;13.40;5.90;;;11.80;99.90;;;;;;4988238;28;20416;-59
2021/08/17 03:34:05;;;;;;;12.37;6.30;;;11.80;99.90;;;;;;5028285;28;20176;-59
2021/08/17 03:36:31;;;;;;;13.33;7.07;;;11.80;99.90;;;;;;5010272;28;20411;-59
2021/08/17 03:38:57;;;;;;;12.47;7.03;;;11.80;99.90;;;;;;4993456;28;20450;-58
2021/08/17 03:41:22;;;;;;;15.80;7.20;;;11.70;99.90;;;;;;4997392;28;20187;-58
2021/08/17 03:43:48;;;;;;;10.83;6.23;;;11.70;99.90;;;;;;5032755;28;20254;-59
2021/08/17 03:46:13;;;;;;;10.77;5.97;;;11.70;99.90;;;;;;5032389;28;20188;-58
2021/08/17 03:48:39;;;;;;;11.90;6.27;;;11.70;99.90;;;;;;5004286;28;20201;-58
2021/08/17 03:51:05;;;;;;;10.60;6.57;;;11.60;99.90;;;;;;4993370;28;20173;-58
2021/08/17 03:53:30;;;;;;;12.90;6.80;;;11.60;99.90;;;;;;5011758;28;20700;-58
2021/08/17 03:55:56;;;;;;;18.30;7.60;;;11.50;99.90;;;;;;5010969;28;20629;-58
2021/08/17 03:58:21;;;;;;;14.60;6.80;;;11.50;99.90;;;;;;4994894;28;20208;-59
2021/08/17 04:00:47;;;;;;;11.90;6.50;;;11.50;99.90;;;;;;4993219;28;20189;-59
2021/08/17 04:03:13;;;;;;;15.43;7.57;;;11.50;99.90;;;;;;5003327;28;20657;-58
2021/08/17 04:05:38;;;;;;;11.47;6.90;;;11.50;99.90;;;;;;5002397;28;20192;-58
2021/08/17 04:08:05;;;;;;;11.20;6.70;;;11.40;99.90;;;;;;5000502;28;20204;-58
2021/08/17 04:10:31;;;;;;;11.00;6.60;;;11.40;99.90;;;;;;5010508;28;20291;-58
2021/08/17 04:12:56;;;;;;;14.40;6.80;;;11.40;99.90;;;;;;5010935;28;20517;-59
2021/08/17 04:15:22;;;;;;;12.00;6.77;;;11.30;99.90;;;;;;4991878;28;20168;-58
2021/08/17 04:17:48;;;;;;;12.47;7.13;;;11.30;99.90;;;;;;5011500;28;20657;-59
2021/08/17 04:20:15;;;;;;;11.37;6.33;;;11.30;99.90;;;;;;5010454;28;20188;-58
2021/08/17 04:22:40;;;;;;;10.37;5.97;;;11.30;99.90;;;;;;5013152;28;20176;-58
2021/08/17 04:25:07;;;;;;;12.37;6.50;;;11.30;99.90;;;;;;5012181;28;20425;-58
2021/08/17 04:27:33;;;;;;;16.57;5.97;;;11.20;99.90;;;;;;5011676;28;20292;-59
2021/08/17 04:29:59;;;;;;;11.40;6.73;;;11.20;99.90;;;;;;5010014;28;20416;-59
2021/08/17 04:32:24;;;;;;;10.43;6.03;;;11.20;99.90;;;;;;5009907;28;20416;-58
2021/08/17 04:34:50;;;;;;;14.00;6.17;;;11.20;99.90;;;;;;5013934;28;20646;-58
2021/08/17 04:37:16;;;;;;;11.60;6.30;;;11.20;99.90;;;;;;5011787;28;20775;-59
2021/08/17 04:39:41;;;;;;;10.20;5.40;;;11.20;99.90;;;;;;5003475;28;20355;-60
2021/08/17 04:42:07;;;;;;;8.47;5.30;;;11.20;99.90;;;;;;5007815;28;20230;-58
2021/08/17 04:44:34;;;;;;;13.27;5.80;;;11.10;99.90;;;;;;5003377;28;20177;-58
2021/08/17 04:47:00;;;;;;;11.00;5.70;;;11.10;99.90;;;;;;4992315;28;20384;-58
2021/08/17 04:49:26;;;;;;;11.70;6.40;;;11.10;99.90;;;;;;4991686;28;20427;-59
2021/08/17 04:51:52;;;;;;;10.90;5.57;;;11.10;99.90;;;;;;5001044;28;20647;-59
2021/08/17 04:54:17;;;;;;;9.60;5.53;;;11.10;99.90;;;;;;4997784;28;20179;-58
2021/08/17 04:56:43;;;;;;;13.13;6.87;;;11.10;99.90;;;;;;5011351;28;20215;-58
2021/08/17 04:59:09;;;;;;;10.57;6.67;;;11.10;99.90;;;;;;5011065;28;20199;-58
2021/08/17 05:01:35;;;;;;;13.53;6.10;;;11.10;99.90;;;;;;5014581;28;20199;-58
2021/08/17 05:04:03;;;;;;;13.50;6.40;;;11.20;99.90;;;;;;5025786;28;20454;-61
2021/08/17 05:06:28;;;;;;;17.97;6.10;;;11.20;99.90;;;;;;5009828;28;20641;-58
2021/08/17 05:08:54;;;;;;;9.63;5.83;;;11.30;99.90;;;;;;5010568;28;20519;-58
2021/08/17 05:11:19;;;;;;;11.60;5.77;;;11.30;99.90;;;;;;5000389;28;20183;-58
2021/08/17 05:13:45;;;;;;;12.40;6.10;;;11.30;99.90;;;;;;5030665;28;20179;-58
2021/08/17 05:16:11;;;;;;;13.03;6.90;;;11.30;99.90;;;;;;5030653;28;20202;-59
2021/08/17 05:18:37;;;;;;;13.50;6.70;;;11.30;99.90;;;;;;4998772;28;20231;-58
2021/08/17 05:21:03;;;;;;;13.27;6.40;;;11.30;99.90;;;;;;4992826;28;20614;-58
2021/08/17 05:23:29;;;;;;;14.60;6.50;;;11.30;99.90;;;;;;5009470;28;20173;-58
2021/08/17 05:25:55;;;;;;;11.30;6.60;;;11.30;99.90;;;;;;5011170;28;20446;-58
2021/08/17 05:28:21;;;;;;;16.43;7.10;;;11.30;99.90;;;;;;5005546;28;20503;-58
2021/08/17 05:30:47;;;;;;;10.17;6.33;;;11.30;99.90;;;;;;4990861;28;20603;-59
2021/08/17 05:33:14;;;;;;;13.50;6.53;;;11.30;99.90;;;;;;5009741;28;20419;-58
2021/08/17 05:35:40;;;;;;;12.43;6.60;;;11.40;99.90;;;;;;5005379;28;20424;-59
2021/08/17 05:38:06;;;;;;;14.27;7.33;;;11.40;99.90;;;;;;5010528;28;20423;-60
2021/08/17 05:40:32;;;;;;;11.67;6.30;;;11.60;99.90;;;;;;5010466;28;20546;-60
2021/08/17 05:42:58;;;;;;;14.03;7.87;;;11.60;99.90;;;;;;5010631;28;20514;-58
2021/08/17 05:45:23;;;;;;;13.63;7.40;;;11.70;99.90;;;;;;4996017;28;20196;-58
2021/08/17 05:47:50;;;;;;;23.47;7.33;;;11.80;99.90;;;;;;4990824;28;20200;-58
2021/08/17 05:50:16;;;;;;;12.57;6.23;;;12.00;99.90;;;;;;4990245;28;20181;-58
2021/08/17 05:52:43;;;;;;;12.03;6.90;;;12.10;99.90;;;;;;5008116;28;20427;-57
2021/08/17 05:55:09;;;;;;;12.33;5.80;;;12.20;99.90;;;;;;4992900;28;20715;-60
2021/08/17 05:57:35;;;;;;;10.30;6.33;;;12.30;99.90;;;;;;4990884;28;20401;-59
2021/08/17 06:00:06;;;;;;;12.97;5.77;;;12.40;99.90;;;;;;5007009;28;20447;-60
2021/08/17 06:02:32;;;;;;;11.83;6.30;;;12.50;99.90;;;;;;5011837;28;20182;-58
2021/08/17 06:04:57;;;;;;;13.57;7.00;;;12.50;99.90;;;;;;5008749;28;20939;-59
2021/08/17 06:07:23;;;;;;;10.40;6.03;;;12.60;99.90;;;;;;5009811;28;20226;-59
2021/08/17 06:09:48;;;;;;;10.50;6.20;;;12.60;99.70;;;;;;5008256;28;20750;-58
2021/08/17 06:12:14;;;;;;;11.77;6.37;;;12.50;99.30;;;;;;5015034;28;20175;-58
2021/08/17 06:14:41;;;;;;;9.97;5.80;;;12.50;99.90;;;;;;5009972;28;20255;-59
2021/08/17 06:17:07;;;;;;;11.47;6.40;;;12.70;99.90;;;;;;5010573;28;20161;-57
2021/08/17 06:19:33;;;;;;;10.13;5.57;;;12.80;99.90;;;;;;5009914;28;20438;-58
2021/08/17 06:21:59;;;;;;;10.43;5.83;;;13.00;99.80;;;;;;5007354;28;20183;-59
2021/08/17 06:24:24;;;;;;;10.23;5.53;;;13.20;98.30;;;;;;5014533;28;20167;-57
2021/08/17 06:26:50;;;;;;;9.17;5.60;;;13.30;97.40;;;;;;5009707;28;20204;-58
2021/08/17 06:29:16;;;;;;;8.77;5.40;;;13.40;93.80;;;;;;4999993;28;20200;-59
2021/08/17 06:31:42;;;;;;;8.80;5.10;;;13.50;94.80;;;;;;5001593;28;20176;-58
2021/08/17 06:34:08;;;;;;;9.57;5.17;;;13.50;94.30;;;;;;5011364;28;20411;-58
2021/08/17 06:36:36;;;;;;;11.53;5.40;;;13.70;92.70;;;;;;5007709;28;20202;-58
2021/08/17 06:39:03;;;;;;;7.47;4.50;;;13.70;90.30;;;;;;4990400;28;20193;-58
2021/08/17 06:41:29;;;;;;;11.03;5.80;;;13.60;90.00;;;;;;5005440;28;20783;-59
2021/08/17 06:43:55;;;;;;;9.47;5.03;;;13.40;88.60;;;;;;5014757;28;20421;-60
2021/08/17 06:46:20;;;;;;;9.07;5.07;;;13.40;88.40;;;;;;5011658;28;20208;-58
2021/08/17 06:48:46;;;;;;;9.90;5.23;;;13.40;88.10;;;;;;4988605;28;20669;-59
2021/08/17 06:51:12;;;;;;;11.53;5.37;;;13.40;88.90;;;;;;4994365;28;20611;-58
2021/08/17 06:53:38;;;;;;;9.10;4.90;;;13.50;87.90;;;;;;5009588;28;20171;-58
2021/08/17 06:56:05;;;;;;;8.93;4.70;;;13.60;86.50;;;;;;5007878;28;20416;-58
2021/08/17 06:58:31;;;;;;;9.83;4.93;;;13.60;85.80;;;;;;5009231;28;20423;-58
2021/08/17 07:00:57;;;;;;;9.57;5.33;;;13.70;84.00;;;;;;5009534;28;20793;-58
2021/08/17 07:03:22;;;;;;;9.90;5.20;;;13.70;86.60;;;;;;5009936;28;20165;-58
2021/08/17 07:05:48;;;;;;;9.10;5.17;;;13.60;88.30;;;;;;4991806;28;20443;-58
2021/08/17 07:08:14;;;;;;;7.83;4.87;;;13.50;89.10;;;;;;5002278;28;20568;-60
2021/08/17 07:10:42;;;;;;;9.43;5.20;;;13.50;89.00;;;;;;5010881;28;20168;-61
2021/08/17 07:13:07;;;;;;;10.77;5.13;;;13.50;89.30;;;;;;5015934;28;20418;-59
2021/08/17 07:15:33;;;;;;;11.17;4.43;;;13.40;88.30;;;;;;5008478;28;20446;-60
2021/08/17 07:17:59;;;;;;;7.87;4.20;;;13.40;89.20;;;;;;5026384;28;20210;-59
2021/08/17 07:20:24;;;;;;;11.43;4.93;;;13.40;90.30;;;;;;5015417;28;20250;-59
2021/08/17 07:22:50;;;;;;;10.83;5.30;;;13.50;85.60;;;;;;5025540;28;20242;-58
2021/08/17 07:25:16;;;;;;;8.70;5.10;;;13.50;86.20;;;;;;5030698;28;20184;-59
2021/08/17 07:27:42;;;;;;;10.30;5.40;;;13.50;84.70;;;;;;5032465;28;20210;-59
2021/08/17 07:30:13;;;;;;;7.60;5.03;;;13.60;88.10;;;;;;5016225;28;20527;-59
2021/08/17 07:32:46;;;;;;;9.10;4.77;;;13.80;90.30;;;;;;5011375;28;20665;-59
2021/08/17 07:35:14;;;;;;;7.83;5.30;;;13.90;84.40;;;;;;5013119;28;20412;-59
2021/08/17 07:37:44;;;;;;;8.80;5.20;;;14.00;83.00;;;;;;5012140;28;20511;-59
2021/08/17 07:40:10;;;;;;;8.33;4.73;;;14.00;84.00;;;;;;5027795;28;20970;-59
2021/08/17 07:42:36;;;;;;;10.57;5.10;;;14.20;85.00;;;;;;5002971;28;20454;-59
2021/08/17 07:45:04;;;;;;;8.27;5.60;;;14.30;83.20;;;;;;5000900;28;20979;-60
2021/08/17 07:47:30;;;;;;;9.77;4.87;;;14.40;83.30;;;;;;5012562;28;20600;-59
2021/08/17 07:49:56;;;;;;;7.40;4.47;;;14.50;80.10;;;;;;5012267;28;20435;-59
2021/08/17 07:52:21;;;;;;;9.00;5.47;;;14.50;78.00;;;;;;5029215;28;20176;-58
2021/08/17 07:54:47;;;;;;;10.00;5.30;;;14.60;72.90;;;;;;5001698;28;20181;-59
2021/08/17 07:57:13;;;;;;;10.80;5.10;;;14.60;66.10;;;;;;4993361;28;20172;-59
2021/08/17 07:59:38;;;;;;;10.67;5.40;;;14.60;67.80;;;;;;4993753;28;20670;-59
2021/08/17 08:02:04;;;;;;;10.33;5.50;;;14.50;66.30;;;;;;5005792;28;20211;-58
2021/08/17 08:04:29;;;;;;;8.87;5.00;;;14.40;67.10;;;;;;5009651;28;20172;-59
2021/08/17 08:06:55;;;;;;;6.93;4.70;;;14.30;69.10;;;;;;5017608;28;20211;-59
2021/08/17 08:09:21;;;;;;;10.33;5.10;;;14.30;71.80;;;;;;5035304;28;20192;-61
2021/08/17 08:11:46;;;;;;;13.90;5.30;;;14.40;75.00;;;;;;5035654;28;20232;-61
2021/08/17 08:14:12;;;;;;;8.97;4.90;;;14.60;77.30;;;;;;5024951;28;20298;-60
2021/08/17 08:16:38;;;;;;;8.57;4.93;;;14.70;75.10;;;;;;5055360;28;20176;-61
2021/08/17 08:19:05;;;;;;;8.53;4.73;;;14.80;73.60;;;;;;5033729;28;20237;-58
2021/08/17 08:21:32;;;;;;;6.17;4.27;;;14.90;74.10;;;;;;5014241;28;20439;-57
2021/08/17 08:23:59;;;;;;;8.50;4.60;;;15.00;75.40;;;;;;5012203;28;20920;-58
2021/08/17 08:26:24;;;;;;;6.67;4.50;;;15.10;72.50;;;;;;5011560;28;20415;-57
2021/08/17 08:28:50;;;;;;;9.80;4.50;;;15.20;70.10;;;;;;5008560;28;20451;-57
2021/08/17 08:31:15;;;;;;;7.93;5.20;;;15.30;72.10;;;;;;4992145;28;20224;-58
2021/08/17 08:33:41;;;;;;;9.23;5.27;;;15.30;68.80;;;;;;4992353;28;20327;-58
2021/08/17 08:36:09;;;;;;;6.63;4.53;;;15.30;70.90;;;;;;4990966;28;20371;-58
2021/08/17 08:38:35;;;;;;;7.83;4.30;;;15.50;74.20;;;;;;5008866;28;20641;-57
2021/08/17 08:41:00;;;;;;;9.30;5.30;;;15.60;74.50;;;;;;5012947;28;20518;-58
2021/08/17 08:43:26;;;;;;;7.80;4.63;;;15.70;75.10;;;;;;5031592;28;20217;-57
2021/08/17 08:45:52;;;;;;;8.00;4.93;;;15.80;74.00;;;;;;5014696;28;20549;-58
2021/08/17 08:48:20;;;;;;;7.10;4.93;;;15.80;68.30;;;;;;5004258;28;20223;-58
2021/08/17 08:50:46;;;;;;;10.23;5.17;;;15.80;68.90;;;;;;5011810;28;20593;-57
2021/08/17 08:53:13;;;;;;;6.53;4.20;;;15.80;69.00;;;;;;5011543;28;20498;-58
2021/08/17 08:55:39;;;;;;;9.13;5.07;;;15.70;67.90;;;;;;5000071;28;20428;-58
2021/08/17 08:58:05;;;;;;;8.43;4.57;;;15.70;71.40;;;;;;5002422;28;20430;-59
2021/08/17 09:00:31;;;;;;;6.83;4.13;;;15.60;71.60;;;;;;5010659;28;20204;-57
2021/08/17 09:02:58;;;;;;;8.53;5.00;;;15.60;71.00;;;;;;5005592;28;20465;-58
2021/08/17 09:05:23;;;;;;;8.40;4.83;;;15.50;68.60;;;;;;5005068;28;20468;-58
2021/08/17 09:07:50;;;;;;;7.93;4.80;;;15.60;72.20;;;;;;5008769;28;20459;-59
2021/08/17 09:10:22;;;;;;;8.00;4.33;;;15.80;76.20;;;;;;5006113;28;20196;-58
2021/08/17 09:12:55;;;;;;;5.97;4.20;;;16.10;70.40;;;;;;5011514;28;20963;-58
2021/08/17 09:15:30;;;;;;;9.63;5.20;;;16.20;68.50;;;;;;5011246;28;20483;-57
2021/08/17 09:18:16;;;;;;;9.37;4.90;;;16.30;68.70;;;;;;5002402;28;20486;-58
2021/08/17 09:20:44;;;;;;;7.30;5.00;;;16.30;67.70;;;;;;5011777;28;20447;-59
2021/08/17 09:23:32;;;;;;;8.20;5.50;;;16.30;66.40;;;;;;5028961;28;20418;-58
2021/08/17 09:26:19;;;;;;;7.80;4.80;;;16.30;67.50;;;;;;5017497;28;20428;-57
2021/08/17 09:28:52;;;;;;;7.03;4.47;;;16.30;65.70;;;;;;4990860;28;20462;-57
2021/08/17 09:31:31;;;;;;;9.40;5.37;;;16.40;65.70;;;;;;4994571;28;20447;-58
2021/08/17 09:33:57;;;;;;;11.10;5.47;;;16.70;67.40;;;;;;5010841;28;20415;-57
2021/08/17 09:36:23;;;;;;;11.20;5.03;;;16.80;63.30;;;;;;4997333;28;20439;-58
2021/08/17 09:38:49;;;;;;;14.33;6.03;;;16.80;63.40;;;;;;4991275;28;20428;-58
2021/08/17 09:41:24;;;;;;;9.80;5.67;;;16.60;63.20;;;;;;4992485;28;20180;-57
2021/08/17 09:44:02;;;;;;;11.77;5.30;;;16.50;63.30;;;;;;5010204;28;20263;-60
2021/08/17 09:46:39;;;;;;;6.90;5.10;;;16.50;63.80;;;;;;5008109;28;20970;-58
2021/08/17 09:49:31;;;;;;;9.17;5.17;;;16.60;64.20;;;;;;5011060;28;20458;-59
2021/08/17 09:52:05;;;;;;;9.90;5.47;;;16.90;63.00;;;;;;5011412;28;20412;-59
2021/08/17 09:54:31;;;;;;;7.90;4.70;;;17.10;62.50;;;;;;5002148;28;20499;-58
2021/08/17 09:57:00;;;;;;;11.10;5.47;;;17.30;63.70;;;;;;5012533;28;20424;-58
2021/08/17 09:59:29;;;;;;;8.80;5.40;;;17.50;63.40;;;;;;5009298;28;20223;-57
2021/08/17 10:01:55;;;;;;;9.73;5.57;;;17.70;61.90;;;;;;5010926;28;20400;-58
2021/08/17 10:04:24;;;;;;;9.13;5.13;;;17.90;57.60;;;;;;5002678;28;20435;-59
2021/08/17 10:06:53;;;;;;;9.97;5.63;;;17.90;56.10;;;;;;5004412;28;20811;-59
2021/08/17 10:09:21;;;;;;;9.23;4.93;;;17.90;55.90;;;;;;5010035;28;20434;-58
2021/08/17 10:11:47;;;;;;;10.07;6.53;;;18.00;57.30;;;;;;5010706;28;20971;-58
2021/08/17 10:14:14;;;;;;;9.60;5.83;;;18.10;56.40;;;;;;5010361;28;20491;-58
2021/08/17 10:16:43;;;;;;;9.13;5.53;;;18.20;54.80;;;;;;5028348;28;20168;-58
2021/08/17 10:19:11;;;;;;;11.40;5.70;;;18.30;56.20;;;;;;5029072;28;20434;-57
2021/08/17 10:21:40;;;;;;;10.50;5.67;;;18.40;55.00;;;;;;5007781;28;20486;-57
2021/08/17 10:24:31;;;;;;;11.23;5.20;;;18.50;54.60;;;;;;4999734;28;20431;-57
2021/08/17 10:27:33;;;;;;;8.93;5.10;;;18.50;53.20;;;;;;4999761;28;20510;-58
2021/08/17 10:30:17;;;;;;;7.13;5.07;;;18.50;54.50;;;;;;4957129;28;21003;-60
2021/08/17 10:32:56;;;;;;;12.40;5.30;;;18.60;54.30;;;;;;4990207;28;20821;-59
2021/08/17 10:35:28;;;;;;;9.23;5.07;;;18.60;53.80;;;;;;5010473;28;20934;-58
2021/08/17 10:38:06;;;;;;;10.33;4.43;;;18.60;53.40;;;;;;5019029;28;20557;-58
2021/08/17 10:40:58;;;;;;;10.40;5.50;;;18.70;54.60;;;;;;4999523;28;20513;-58
2021/08/17 10:43:27;;;;;;;10.90;5.80;;;18.90;55.40;;;;;;5009971;28;20423;-59
2021/08/17 10:46:01;;;;;;;6.53;4.47;;;18.90;54.30;;;;;;5009273;28;20400;-58
2021/08/17 10:48:45;;;;;;;7.50;4.83;;;18.70;54.60;;;;;;5003918;28;20458;-59
2021/08/17 10:51:23;;;;;;;11.20;5.70;;;18.50;55.60;;;;;;5013123;28;20415;-57
2021/08/17 10:54:12;;;;;;;18.37;6.87;;;18.30;55.30;;;;;;5033239;28;20572;-59
2021/08/17 10:56:38;;;;;;;11.23;5.47;;;18.10;55.60;;;;;;5020284;28;20421;-60
2021/08/17 10:59:05;;;;;;;13.30;5.10;;;17.90;55.60;;;;;;5012639;28;20459;-58
2021/08/17 11:01:31;;;;;;;11.07;5.70;;;17.90;56.60;;;;;;5013840;28;20424;-58
2021/08/17 11:04:10;;;;;;;13.03;5.90;;;18.20;57.80;;;;;;5008024;28;20415;-59
2021/08/17 11:06:43;;;;;;;10.93;5.73;;;18.60;56.90;;;;;;5008712;28;20179;-60
2021/08/17 11:09:15;;;;;;;6.70;4.43;;;19.00;55.60;;;;;;5013228;28;20427;-58
2021/08/17 11:11:44;;;;;;;10.00;5.37;;;19.40;57.40;;;;;;5013287;28;20821;-58
2021/08/17 11:14:12;;;;;;;7.63;5.40;;;19.60;56.10;;;;;;5004680;28;20435;-58
2021/08/17 11:16:44;;;;;;;13.10;5.50;;;19.50;53.20;;;;;;5013061;28;20986;-58
2021/08/17 11:19:10;;;;;;;11.50;5.73;;;19.40;53.00;;;;;;5012915;28;20450;-58
2021/08/17 11:21:40;;;;;;;10.73;6.23;;;19.20;53.00;;;;;;5005364;28;20474;-58
2021/08/17 11:24:33;;;;;;;8.50;5.27;;;18.90;53.00;;;;;;4992836;28;20411;-58
2021/08/17 11:27:11;;;;;;;8.93;5.77;;;18.70;53.80;;;;;;4985045;28;20475;-57
2021/08/17 11:29:53;;;;;;;10.33;5.80;;;18.40;54.20;;;;;;5009424;28;20456;-56
2021/08/17 11:32:40;;;;;;;9.10;5.60;;;18.20;54.30;;;;;;5008752;28;20418;-58
2021/08/17 11:35:20;;;;;;;9.17;5.57;;;18.10;55.10;;;;;;5012783;28;20407;-58
2021/08/17 11:37:48;;;;;;;9.60;5.47;;;18.20;55.70;;;;;;5012815;28;20398;-59
2021/08/17 11:40:21;;;;;;;10.87;6.17;;;18.30;56.00;;;;;;5024661;28;20573;-58
2021/08/17 11:42:50;;;;;;;9.70;5.57;;;18.20;53.80;;;;;;5032001;28;20394;-58
2021/08/17 11:45:21;;;;;;;9.93;5.70;;;18.10;54.70;;;;;;5012707;28;20427;-58
2021/08/17 11:47:48;;;;;;;8.77;5.17;;;18.10;54.80;;;;;;5011218;28;20521;-58
2021/08/17 11:50:16;;;;;;;9.30;5.80;;;18.10;55.30;;;;;;5011987;28;20451;-59
2021/08/17 11:52:49;;;;;;;9.70;6.10;;;18.20;55.50;;;;;;5005292;28;20420;-58
2021/08/17 11:55:24;;;;;;;11.07;6.00;;;18.40;56.50;;;;;;4992518;28;20403;-56
2021/08/17 11:57:56;;;;;;;10.43;6.20;;;18.60;54.20;;;;;;5010934;28;20454;-58
2021/08/17 12:00:27;;;;;;;9.60;5.97;;;18.80;54.80;;;;;;5006163;28;20510;-60
2021/08/17 12:02:58;;;;;;;11.37;6.10;;;18.90;54.70;;;;;;4991532;28;20396;-59
2021/08/17 12:05:26;;;;;;;10.83;6.43;;;19.10;53.50;;;;;;5001156;28;20867;-59
2021/08/17 12:07:53;;;;;;;13.30;6.60;;;19.20;52.90;;;;;;5010786;28;20859;-58
2021/08/17 12:10:34;;;;;;;10.73;6.83;;;19.20;53.20;;;;;;5001626;28;20443;-57
2021/08/17 12:13:11;;;;;;;16.23;6.67;;;19.10;52.30;;;;;;5012132;28;20439;-58
2021/08/17 12:15:37;;;;;;;14.47;7.07;;;18.80;51.50;;;;;;5012043;28;20399;-57
2021/08/17 12:18:05;;;;;;;11.37;6.67;;;18.60;52.40;;;;;;5014468;28;20411;-60
2021/08/17 12:20:32;;;;;;;10.80;7.10;;;18.50;53.50;;;;;;4996837;28;20523;-58
2021/08/17 12:22:58;;;;;;;10.30;6.57;;;18.50;54.60;;;;;;5013475;28;20409;-58
2021/08/17 12:25:27;;;;;;;11.63;6.93;;;18.40;54.90;;;;;;5011420;28;20481;-58
2021/08/17 12:27:57;;;;;;;12.43;7.07;;;18.60;54.40;;;;;;5020520;28;20191;-58
2021/08/17 12:30:28;;;;;;;13.93;7.93;;;19.00;54.50;;;;;;4995099;28;20455;-57
2021/08/17 12:32:54;;;;;;;14.20;7.80;;;19.20;54.70;;;;;;4991936;28;20900;-57
2021/08/17 12:35:32;;;;;;;17.37;8.00;;;19.20;53.30;;;;;;5007196;28;20820;-58
2021/08/17 12:38:17;;;;;;;13.40;7.57;;;19.20;54.00;;;;;;5013770;28;20817;-59
2021/08/17 12:40:53;;;;;;;11.03;7.10;;;19.20;54.10;;;;;;5010677;28;20450;-60
2021/08/17 12:43:24;;;;;;;15.47;7.40;;;19.10;53.20;;;;;;5010258;28;20399;-59
2021/08/17 12:45:50;;;;;;;12.23;7.50;;;19.10;54.40;;;;;;4993418;28;20443;-59
2021/08/17 12:48:17;;;;;;;13.37;8.17;;;19.40;54.40;;;;;;5009071;28;20454;-59
2021/08/17 12:50:45;;;;;;;14.93;7.40;;;19.90;54.10;;;;;;5011064;28;20943;-60
2021/08/17 12:53:17;;;;;;;12.60;7.40;;;20.30;53.10;;;;;;4996973;28;20446;-59
2021/08/17 12:55:43;;;;;;;13.70;8.40;;;20.40;52.40;;;;;;4993958;28;20427;-60
2021/08/17 12:58:08;;;;;;;14.37;8.20;;;20.20;52.10;;;;;;5011679;28;20440;-57